Time;durP1;ratioP1;P1;durP2;ratioP2;P2;SDS_P1;SDS_P2;PMS_P1;PMS_P2;Temp;Humidity;BMP_temperature;BMP_pressure;BME280_temperature;BME280_humidity;BME280_pressure;Samples;Min_cycle;Max_cycle;Signal;HPM_P1;HPM_P2
2022/08/11 00:01:09;;;;;;;6.15;2.80;;;;;;;20.25;51.25;102027.59;6191271;23;20091;-86
2022/08/11 00:03:35;;;;;;;5.85;3.22;;;;;;;20.21;52.20;102031.09;6217337;23;20370;-86
2022/08/11 00:06:02;;;;;;;5.30;2.70;;;;;;;20.19;52.16;102025.84;6189454;23;20359;-87
2022/08/11 00:08:32;;;;;;;5.95;3.20;;;;;;;20.15;52.19;102032.94;6191016;23;20433;-88
2022/08/11 00:11:11;;;;;;;7.30;3.57;;;;;;;20.14;51.82;102034.88;6191115;23;20040;-86
2022/08/11 00:13:44;;;;;;;6.70;3.05;;;;;;;20.13;52.34;102026.84;6191790;23;20005;-86
2022/08/11 00:16:24;;;;;;;6.53;2.92;;;;;;;20.07;51.84;102033.38;6217403;23;20001;-85
2022/08/11 00:18:52;;;;;;;6.45;3.25;;;;;;;20.03;53.17;102023.94;6191736;23;20004;-86
2022/08/11 00:21:23;;;;;;;6.68;3.28;;;;;;;19.98;53.29;102025.50;6189990;23;20012;-85
2022/08/11 00:24:01;;;;;;;6.60;3.20;;;;;;;19.98;52.56;102024.69;6190679;23;20065;-86
2022/08/11 00:26:28;;;;;;;4.93;3.17;;;;;;;19.94;52.85;102032.59;6216853;23;20008;-86
2022/08/11 00:28:54;;;;;;;5.65;3.20;;;;;;;19.93;52.72;102027.34;6190837;23;20062;-86
2022/08/11 00:31:27;;;;;;;4.07;3.40;;;;;;;19.89;52.41;102028.94;6190966;23;20008;-85
2022/08/11 00:33:56;;;;;;;4.93;3.00;;;;;;;19.88;53.70;102030.03;6190121;23;20005;-86
2022/08/11 00:36:44;;;;;;;7.10;3.27;;;;;;;19.85;52.53;102030.53;6217170;23;20011;-86
2022/08/11 00:39:12;;;;;;;5.90;3.17;;;;;;;19.82;54.09;102025.50;6217381;23;20001;-85
2022/08/11 00:41:58;;;;;;;7.97;3.67;;;;;;;19.78;53.43;102022.41;6190358;23;20448;-86
2022/08/11 00:44:42;;;;;;;4.65;3.28;;;;;;;19.74;53.44;102032.25;6190088;23;20082;-85
2022/08/11 00:47:17;;;;;;;6.35;3.13;;;;;;;19.68;53.90;102031.31;6190428;23;20059;-85
2022/08/11 00:50:03;;;;;;;7.10;3.30;;;;;;;19.63;53.63;102025.69;6190072;23;20007;-85
2022/08/11 00:52:47;;;;;;;4.55;3.30;;;;;;;19.61;53.86;102031.44;6217033;23;20005;-86
2022/08/11 00:55:42;;;;;;;7.05;3.78;;;;;;;19.57;54.18;102021.19;6190172;23;20012;-85
2022/08/11 00:58:45;;;;;;;3.95;3.20;;;;;;;19.55;54.17;102028.88;6190349;23;20009;-84
2022/08/11 01:01:39;;;;;;;4.85;2.95;;;;;;;19.48;54.71;102028.19;6190545;23;20357;-86
2022/08/11 01:04:17;;;;;;;6.43;3.43;;;;;;;19.43;54.78;102027.00;6174535;23;20418;-86
2022/08/11 01:06:49;;;;;;;10.77;3.70;;;;;;;19.40;55.03;102023.88;6190523;23;20012;-85
2022/08/11 01:09:20;;;;;;;5.22;3.50;;;;;;;19.40;55.09;102021.13;6190187;23;20016;-86
2022/08/11 01:12:20;;;;;;;6.28;3.55;;;;;;;19.34;54.55;102017.47;6190073;23;20016;-85
2022/08/11 01:15:19;;;;;;;12.25;3.65;;;;;;;19.31;54.30;102028.13;6217410;23;20000;-85
2022/08/11 01:18:12;;;;;;;5.37;3.43;;;;;;;19.28;55.23;102019.28;6190134;23;20012;-86
2022/08/11 01:21:17;;;;;;;7.07;3.70;;;;;;;19.24;54.65;102033.78;6190016;23;20521;-85
2022/08/11 01:24:29;;;;;;;5.35;3.83;;;;;;;19.17;55.35;102027.59;6190335;23;20009;-86
2022/08/11 01:27:06;;;;;;;5.20;3.58;;;;;;;19.12;56.24;102022.81;6190376;23;20426;-86
2022/08/11 01:30:06;;;;;;;8.55;3.65;;;;;;;19.12;56.13;102031.06;6190894;23;20032;-85
2022/08/11 01:33:05;;;;;;;5.40;3.37;;;;;;;19.08;55.43;102030.72;6190487;23;20047;-85
2022/08/11 01:35:55;;;;;;;7.00;3.45;;;;;;;19.06;55.74;102037.53;6190718;23;20004;-86
2022/08/11 01:38:45;;;;;;;3.92;3.35;;;;;;;19.02;56.00;102037.19;6216183;23;20009;-86
2022/08/11 01:41:21;;;;;;;7.10;3.38;;;;;;;18.97;57.22;102034.34;6189957;23;20040;-86
2022/08/11 01:47:06;;;;;;;7.87;3.80;;;;;;;18.88;56.72;102031.16;6217064;23;20019;-86
2022/08/11 01:49:43;;;;;;;5.45;3.42;;;;;;;18.87;56.84;102037.72;6216146;23;20076;-85
2022/08/11 01:52:21;;;;;;;4.43;3.45;;;;;;;18.83;57.03;102036.50;6190860;23;20011;-86
2022/08/11 01:55:22;;;;;;;6.25;3.70;;;;;;;18.81;56.11;102032.31;6189617;23;20007;-85
2022/08/11 01:57:54;;;;;;;4.60;3.60;;;;;;;18.81;57.10;102041.41;6190758;23;20016;-86
2022/08/11 02:00:27;;;;;;;4.57;3.70;;;;;;;18.77;57.64;102035.53;6216100;23;20008;-85
2022/08/11 02:03:14;;;;;;;5.05;3.90;;;;;;;18.72;56.68;102029.94;6190186;23;20370;-85
2022/08/11 02:05:59;;;;;;;7.30;3.97;;;;;;;18.67;56.63;102038.06;6216075;23;20013;-86
2022/08/11 02:08:53;;;;;;;5.63;3.70;;;;;;;18.65;56.69;102040.22;6216472;23;20009;-86
2022/08/11 02:11:43;;;;;;;7.70;3.97;;;;;;;18.59;57.54;102044.78;6189996;23;20315;-85
2022/08/11 02:14:33;;;;;;;6.70;4.03;;;;;;;18.55;57.50;102040.81;6189840;23;20470;-85
2022/08/11 02:17:01;;;;;;;7.47;4.15;;;;;;;18.52;58.59;102037.72;6189658;23;20008;-85
2022/08/11 02:25:55;;;;;;;7.00;4.55;;;;;;;18.40;59.80;102030.31;6216061;23;20025;-86
2022/08/11 02:28:41;;;;;;;6.27;4.43;;;;;;;18.37;58.45;102038.22;6189773;23;20004;-86
2022/08/11 02:34:20;;;;;;;5.43;4.50;;;;;;;18.31;58.77;102025.44;6216544;23;20103;-85
2022/08/11 02:37:15;;;;;;;12.93;4.80;;;;;;;18.30;58.25;102029.25;6189978;23;20058;-85
2022/08/11 02:40:19;;;;;;;7.60;4.32;;;;;;;18.24;57.71;102017.31;6189850;23;20005;-86
2022/08/11 02:42:56;;;;;;;8.57;4.70;;;;;;;18.22;59.70;102030.44;6162969;23;20011;-86
2022/08/11 02:45:53;;;;;;;11.02;4.88;;;;;;;18.18;59.26;102027.31;6189866;23;20119;-86
2022/08/11 02:52:04;;;;;;;6.57;5.20;;;;;;;18.06;59.37;102016.34;6216632;23;20015;-86
2022/08/11 02:54:52;;;;;;;6.30;4.35;;;;;;;18.03;59.52;102016.81;6189093;23;20000;-86
2022/08/11 02:57:26;;;;;;;6.53;4.40;;;;;;;18.04;59.86;102023.97;6215871;23;20016;-86
2022/08/11 03:00:08;;;;;;;8.38;5.20;;;;;;;18.03;59.71;102019.56;6189852;23;20034;-85
2022/08/11 03:02:54;;;;;;;10.68;4.75;;;;;;;18.00;59.77;102021.97;6189730;23;20091;-85
2022/08/11 03:05:41;;;;;;;9.80;5.15;;;;;;;17.95;60.23;102022.66;6189822;23;20009;-85
2022/08/11 03:08:37;;;;;;;9.07;4.60;;;;;;;17.90;59.60;102027.19;6190316;23;20391;-85
2022/08/11 03:17:36;;;;;;;9.98;4.90;;;;;;;17.75;59.83;102022.94;6218085;23;20023;-85
2022/08/11 03:20:20;;;;;;;12.43;5.22;;;;;;;17.71;60.36;102019.81;6217843;23;20001;-85
2022/08/11 03:22:51;;;;;;;11.77;5.20;;;;;;;17.68;61.32;102024.94;6218364;23;20016;-85
2022/08/11 03:25:40;;;;;;;7.87;4.73;;;;;;;17.63;61.46;102020.16;6217909;23;20036;-84
2022/08/11 03:28:16;;;;;;;8.55;4.88;;;;;;;17.61;61.26;102022.31;6217920;23;20058;-85
2022/08/11 03:31:02;;;;;;;10.50;5.30;;;;;;;17.58;61.92;102022.75;6191820;23;20430;-85
2022/08/11 03:34:01;;;;;;;6.93;5.15;;;;;;;17.56;61.34;102019.44;6196782;23;20411;-85
2022/08/11 03:36:52;;;;;;;6.65;4.85;;;;;;;17.54;61.46;102014.19;6192227;23;20009;-85
2022/08/11 03:39:39;;;;;;;12.70;5.40;;;;;;;17.54;62.53;102030.63;6218181;23;20005;-86
2022/08/11 03:42:32;;;;;;;5.72;4.75;;;;;;;17.53;62.96;102031.69;6217293;23;20011;-85
2022/08/11 03:45:12;;;;;;;13.73;4.88;;;;;;;17.49;61.79;102030.50;6192046;23;20023;-85
2022/08/11 03:48:04;;;;;;;7.18;4.55;;;;;;;17.44;62.06;102027.63;6217993;23;20004;-85
2022/08/11 03:51:17;;;;;;;10.95;4.72;;;;;;;17.41;61.75;102027.25;6190291;23;20314;-85
2022/08/11 03:53:57;;;;;;;12.30;4.37;;;;;;;17.35;61.47;102024.38;6071909;23;20014;-85
2022/08/11 03:56:56;;;;;;;6.97;4.45;;;;;;;17.32;61.28;102024.81;6072840;23;20006;-85
2022/08/11 03:59:41;;;;;;;8.52;4.88;;;;;;;17.30;62.02;102024.25;6165082;23;20008;-85
2022/08/11 04:02:58;;;;;;;6.78;4.90;;;;;;;17.28;61.68;102026.34;6217574;23;20013;-85
2022/08/11 04:06:15;;;;;;;7.28;4.60;;;;;;;17.25;61.26;102020.50;6190454;23;20005;-85
2022/08/11 04:09:12;;;;;;;5.40;4.30;;;;;;;17.21;61.94;102022.84;6191403;23;20104;-85
2022/08/11 04:12:18;;;;;;;6.72;4.72;;;;;;;17.20;61.81;102018.47;6190780;23;20023;-85
2022/08/11 04:18:25;;;;;;;7.70;4.38;;;;;;;17.17;63.10;102024.41;6217068;23;20431;-85
2022/08/11 04:21:11;;;;;;;10.48;4.97;;;;;;;17.12;62.87;102014.13;6217665;23;20009;-85
2022/08/11 04:23:43;;;;;;;6.90;4.93;;;;;;;17.08;63.35;102010.19;6191302;23;20311;-85
2022/08/11 04:26:41;;;;;;;8.43;5.10;;;;;;;17.09;62.68;102013.75;6190278;23;20009;-85
2022/08/11 04:29:17;;;;;;;7.88;5.28;;;;;;;17.12;64.24;102018.78;6189180;23;20068;-86
2022/08/11 04:32:22;;;;;;;7.43;5.20;;;;;;;17.14;62.89;102019.38;6216981;23;20001;-86
2022/08/11 04:35:03;;;;;;;9.80;5.47;;;;;;;17.12;63.76;102016.84;6191175;23;20021;-85
2022/08/11 04:37:41;;;;;;;10.40;5.63;;;;;;;17.14;64.18;102020.22;6217251;23;20008;-85
2022/08/11 04:40:37;;;;;;;8.25;5.80;;;;;;;17.10;62.92;102013.53;6190203;23;20004;-85
2022/08/11 04:43:20;;;;;;;6.93;5.55;;;;;;;17.14;64.43;102022.09;6190770;23;20000;-85
2022/08/11 04:46:11;;;;;;;12.23;5.95;;;;;;;17.14;63.83;102025.72;6190837;23;20066;-85
2022/08/11 05:02:34;;;;;;;9.88;5.68;;;;;;;17.27;62.90;102023.84;6217346;23;20019;-85
2022/08/11 05:05:31;;;;;;;9.55;6.03;;;;;;;17.32;62.75;102035.81;6190237;23;20307;-85
2022/08/11 05:08:48;;;;;;;12.97;6.20;;;;;;;17.36;62.14;102027.94;6189887;23;20012;-85
2022/08/11 05:11:35;;;;;;;9.73;6.40;;;;;;;17.39;62.94;102027.50;6124576;23;20468;-85
2022/08/11 05:37:21;;;;;;;14.83;6.57;;;;;;;17.71;62.00;102036.28;6216704;23;20457;-85
2022/08/11 05:56:49;;;;;;;7.90;7.00;;;;;;;18.11;61.92;102036.75;6216702;23;20147;-85
2022/08/11 05:59:18;;;;;;;16.08;7.40;;;;;;;18.14;61.42;102034.38;6189866;23;20091;-86
2022/08/11 06:01:47;;;;;;;10.30;7.05;;;;;;;18.17;61.57;102031.16;6189618;23;20035;-85
2022/08/11 06:04:21;;;;;;;11.53;7.63;;;;;;;18.20;61.25;102036.19;6189455;23;20005;-85
2022/08/11 06:06:57;;;;;;;13.85;7.05;;;;;;;18.29;61.79;102046.81;6216270;23;20430;-85
2022/08/11 06:09:35;;;;;;;14.38;7.50;;;;;;;18.31;61.12;102037.25;6189674;23;20012;-85
2022/08/11 06:12:07;;;;;;;11.75;6.95;;;;;;;18.37;61.74;102043.72;6189435;23;20047;-85
2022/08/11 06:14:41;;;;;;;11.55;6.65;;;;;;;18.45;62.17;102037.84;6189253;23;20054;-85
2022/08/11 06:17:07;;;;;;;14.33;7.37;;;;;;;18.54;61.16;102041.91;6189607;23;20008;-85
2022/08/11 06:19:38;;;;;;;9.48;6.75;;;;;;;18.61;60.75;102043.69;6189476;23;20020;-84
2022/08/11 06:22:06;;;;;;;9.85;6.50;;;;;;;18.76;60.08;102044.88;6188847;23;20021;-85
2022/08/11 06:24:33;;;;;;;12.65;6.32;;;;;;;18.86;60.08;102037.97;6165217;23;20368;-85
2022/08/11 06:27:00;;;;;;;10.65;5.78;;;;;;;18.93;59.85;102035.91;6189190;23;20008;-85
2022/08/11 06:29:27;;;;;;;13.10;6.07;;;;;;;19.00;59.18;102041.25;6164318;23;20012;-85
2022/08/11 06:31:59;;;;;;;7.43;5.38;;;;;;;19.04;59.44;102036.94;6189290;23;20035;-85
2022/08/11 06:35:02;;;;;;;8.30;5.80;;;;;;;19.15;59.19;102047.09;6189069;23;19997;-85
2022/08/11 06:38:01;;;;;;;8.07;5.90;;;;;;;19.21;58.81;102037.84;6189543;23;20000;-84
2022/08/11 06:43:50;;;;;;;11.77;6.20;;;;;;;19.50;58.64;102039.78;6217667;23;20016;-85
2022/08/11 06:46:31;;;;;;;12.30;6.13;;;;;;;19.63;58.21;102047.72;6217822;23;20442;-85
2022/08/11 06:49:01;;;;;;;8.98;5.47;;;;;;;19.75;58.30;102047.66;6191238;23;20430;-85
2022/08/11 06:51:30;;;;;;;11.25;5.60;;;;;;;19.77;57.99;102048.25;6218653;23;20082;-85
2022/08/11 06:54:01;;;;;;;12.27;5.47;;;;;;;19.85;57.60;102049.81;6190862;23;20047;-86
2022/08/11 07:02:29;;;;;;;8.77;5.45;;;;;;;20.12;57.18;102049.97;6218221;23;20051;-86
2022/08/11 07:05:15;;;;;;;10.02;5.13;;;;;;;20.19;56.89;102052.56;6174899;23;20012;-86
2022/08/11 07:17:20;;;;;;;14.63;5.13;;;;;;;20.43;56.23;102050.44;6218064;23;20069;-84
2022/08/11 07:31:13;;;;;;;8.10;4.68;;;;;;;20.89;54.59;102048.38;6217499;23;20020;-83
2022/08/11 07:33:39;;;;;;;8.30;4.63;;;;;;;20.98;55.20;102048.78;6190966;23;20039;-85
2022/08/11 07:36:07;;;;;;;9.73;4.30;;;;;;;21.02;54.30;102049.91;6217230;23;20004;-83
2022/08/11 07:38:44;;;;;;;8.13;4.50;;;;;;;21.19;53.57;102039.63;6217909;23;20008;-83
2022/08/11 07:41:12;;;;;;;7.47;4.37;;;;;;;21.26;53.64;102049.63;6191895;23;20071;-83
2022/08/11 07:43:43;;;;;;;9.55;4.65;;;;;;;21.31;53.73;102052.47;6190481;23;20004;-84
2022/08/11 07:54:27;;;;;;;7.13;4.37;;;;;;;21.69;51.42;102047.94;6217432;23;20023;-84
2022/08/11 07:56:53;;;;;;;7.07;4.18;;;;;;;21.81;51.33;102042.25;6191133;23;20008;-83
2022/08/11 08:18:37;;;;;;;10.40;4.47;;;;;;;22.39;47.32;102042.44;6217663;23;20016;-84
2022/08/11 08:21:11;;;;;;;7.83;3.80;;;;;;;22.51;47.70;102047.75;6217622;23;20008;-84
2022/08/11 08:23:39;;;;;;;8.27;3.95;;;;;;;22.58;47.60;102048.38;6190902;23;20058;-84
2022/08/11 08:30:46;;;;;;;10.02;4.18;;;;;;;22.69;47.11;102041.81;6216722;23;20092;-85
2022/08/11 08:31:47;;;;;;;8.15;4.45;;;;;;;22.78;47.57;102044.88;6216547;23;20047;-85
2022/08/11 08:34:17;;;;;;;6.90;3.73;;;;;;;22.87;46.92;102047.94;6190748;23;20028;-85
2022/08/11 08:36:48;;;;;;;8.05;4.38;;;;;;;22.94;46.49;102046.63;6191428;23;20012;-84
2022/08/11 08:39:15;;;;;;;9.50;4.43;;;;;;;22.99;46.77;102045.81;6190363;23;20427;-84
2022/08/11 08:41:42;;;;;;;8.18;4.30;;;;;;;23.07;46.84;102048.03;6217007;23;20130;-84
2022/08/11 08:44:12;;;;;;;9.50;4.43;;;;;;;23.14;46.39;102036.75;6191418;23;20414;-85
2022/08/11 08:46:43;;;;;;;6.27;3.97;;;;;;;23.24;46.90;102047.88;6190359;23;20094;-84
2022/08/11 08:49:17;;;;;;;10.88;4.38;;;;;;;23.31;46.56;102033.75;6190446;23;20001;-85
2022/08/11 08:51:45;;;;;;;11.00;3.92;;;;;;;23.38;45.26;102039.84;6190592;23;20012;-85
2022/08/11 08:54:15;;;;;;;7.57;4.15;;;;;;;23.46;44.51;102042.09;6216781;23;20434;-84
2022/08/11 08:56:43;;;;;;;12.50;4.10;;;;;;;23.57;44.67;102042.13;6190192;23;20013;-84
2022/08/11 08:59:11;;;;;;;12.00;3.70;;;;;;;23.63;44.54;102038.25;6189991;23;20005;-85
2022/08/11 09:01:45;;;;;;;6.32;4.00;;;;;;;23.69;44.33;102042.69;6216579;23;20075;-84
2022/08/11 09:04:12;;;;;;;9.45;3.95;;;;;;;23.83;44.20;102038.28;6189882;23;20032;-84
2022/08/11 09:06:39;;;;;;;8.88;4.07;;;;;;;23.92;44.04;102038.59;6164738;23;20004;-82
2022/08/11 09:09:10;;;;;;;7.45;4.10;;;;;;;24.04;44.04;102041.06;6190084;23;20015;-85
2022/08/11 09:11:52;;;;;;;8.07;4.40;;;;;;;24.15;42.92;102033.56;6190303;23;20004;-84
2022/08/11 09:14:24;;;;;;;7.47;4.20;;;;;;;24.28;42.95;102032.19;6193682;23;20058;-82
2022/08/11 09:16:51;;;;;;;9.85;4.03;;;;;;;24.39;43.18;102033.81;6216646;23;20004;-83
2022/08/11 09:19:19;;;;;;;6.10;4.13;;;;;;;24.51;42.21;102031.56;6216551;23;20080;-83
2022/08/11 09:26:58;;;;;;;5.25;3.90;;;;;;;24.66;42.32;102033.50;6216168;23;20012;-83
2022/08/11 09:27:23;;;;;;;6.38;3.50;;;;;;;24.95;41.27;102026.44;6194461;23;20023;-83
2022/08/11 09:29:50;;;;;;;12.32;3.88;;;;;;;25.11;41.32;102033.59;6190181;23;20322;-83
2022/08/11 09:32:20;;;;;;;7.72;4.43;;;;;;;25.28;41.86;102024.06;6190150;23;20039;-83
2022/08/11 09:34:49;;;;;;;13.30;4.72;;;;;;;25.38;41.24;102016.53;6189687;23;20005;-83
2022/08/11 09:45:30;;;;;;;6.47;3.75;;;;;;;25.81;38.06;102015.13;6216549;23;20410;-83
2022/08/11 09:47:57;;;;;;;6.95;3.65;;;;;;;25.91;37.56;102013.06;6164752;23;20330;-82
2022/08/11 09:50:23;;;;;;;7.43;3.80;;;;;;;26.00;37.42;102007.75;6164818;23;20497;-83
2022/08/11 09:52:50;;;;;;;10.73;3.55;;;;;;;26.11;35.90;102004.88;6164892;23;20005;-83
2022/08/11 09:55:16;;;;;;;9.57;3.80;;;;;;;26.26;36.96;102004.69;6165209;23;20008;-85
2022/08/11 10:00:39;;;;;;;5.53;3.67;;;;;;;26.57;36.08;101999.59;6216844;23;20078;-85
2022/08/11 10:03:14;;;;;;;8.60;3.80;;;;;;;26.73;36.10;101997.50;6190378;23;20326;-84
2022/08/11 10:08:32;;;;;;;8.80;3.88;;;;;;;27.07;35.26;101995.69;6216004;23;20016;-85
2022/08/11 10:10:58;;;;;;;7.03;4.13;;;;;;;27.23;35.79;101996.28;6190068;23;20008;-85
2022/08/11 10:13:32;;;;;;;10.50;3.93;;;;;;;27.33;35.16;101993.38;6190255;23;20013;-83
2022/08/11 10:16:02;;;;;;;5.22;3.88;;;;;;;27.53;34.75;101991.41;6216687;23;20004;-83
2022/08/11 10:18:41;;;;;;;6.25;4.05;;;;;;;27.66;34.81;101994.22;6189462;23;20008;-83
2022/08/11 10:21:37;;;;;;;7.00;4.00;;;;;;;27.81;33.86;101984.81;6190115;23;20025;-82
2022/08/11 10:34:47;;;;;;;9.05;3.85;;;;;;;28.52;33.03;101981.81;6215981;23;20100;-83
2022/08/11 10:37:14;;;;;;;7.55;4.05;;;;;;;28.68;32.60;101978.72;6165655;23;20013;-85
2022/08/11 10:39:41;;;;;;;4.57;3.53;;;;;;;28.91;31.60;101982.44;6189367;23;20004;-85
2022/08/11 10:44:56;;;;;;;6.45;3.70;;;;;;;29.31;31.77;101970.66;6194304;23;20074;-86
2022/08/11 10:47:34;;;;;;;11.80;4.20;;;;;;;29.55;31.44;101973.13;6190312;23;20008;-86
2022/08/11 11:01:09;;;;;;;5.88;3.70;;;;;;;30.59;29.08;101958.88;6216293;23;20028;-87
2022/08/11 11:03:35;;;;;;;9.98;4.13;;;;;;;30.87;29.21;101960.56;6165190;23;20009;-85
2022/08/11 11:06:24;;;;;;;6.33;3.80;;;;;;;31.07;28.51;101956.34;6189248;23;20027;-85
2022/08/11 11:08:55;;;;;;;4.47;3.60;;;;;;;31.35;27.20;101953.19;6189632;23;20347;-85
2022/08/11 11:17:54;;;;;;;7.57;3.70;;;;;;;31.67;27.34;101949.06;6216036;23;20059;-86
2022/08/11 11:19:45;;;;;;;5.30;3.40;;;;;;;32.67;23.70;101952.47;6216290;23;20039;-85
2022/08/11 11:25:35;;;;;;;9.60;3.60;;;;;;;36.88;22.47;101944.13;6215499;23;20035;-86
2022/08/11 11:28:17;;;;;;;8.40;3.50;;;;;;;39.88;18.54;101938.25;6189237;23;20004;-86
2022/08/11 11:31:21;;;;;;;5.88;3.63;;;;;;;42.70;16.95;101941.56;6217784;23;20079;-86
2022/08/11 11:34:14;;;;;;;5.77;3.80;;;;;;;45.23;14.79;101931.63;6190820;23;20028;-85
2022/08/11 11:36:57;;;;;;;7.75;4.10;;;;;;;46.76;13.92;101931.41;6191355;23;20431;-86
2022/08/11 11:39:26;;;;;;;4.82;4.30;;;;;;;47.56;11.02;101925.50;6217571;23;20007;-86
2022/08/11 11:41:58;;;;;;;7.18;4.38;;;;;;;48.58;10.98;101915.81;6217553;23;20005;-86
2022/08/11 11:44:24;;;;;;;6.63;4.93;;;;;;;49.59;9.53;101914.72;6191201;23;20008;-86
2022/08/11 11:46:51;;;;;;;9.30;4.80;;;;;;;50.09;8.93;101910.06;6166482;23;20108;-86
2022/08/11 11:49:19;;;;;;;5.88;5.07;;;;;;;50.66;8.93;101904.25;6217511;23;20492;-86
2022/08/11 11:51:51;;;;;;;9.85;5.78;;;;;;;51.50;8.78;101908.31;6190774;23;20460;-86
2022/08/11 11:54:22;;;;;;;8.23;5.95;;;;;;;52.19;7.85;101890.84;6217428;23;20052;-86
2022/08/11 11:56:55;;;;;;;10.52;6.63;;;;;;;52.87;8.13;101887.63;6217899;23;20307;-87
2022/08/11 12:02:13;;;;;;;7.18;6.55;;;;;;;53.97;7.64;101881.63;6217791;23;20533;-86
2022/08/11 12:04:46;;;;;;;10.15;7.30;;;;;;;53.89;7.30;101877.50;6190820;23;20000;-87
2022/08/11 12:09:57;;;;;;;10.05;7.40;;;;;;;55.09;6.08;101867.47;6217863;23;20023;-87
2022/08/11 12:15:09;;;;;;;9.63;8.57;;;;;;;56.45;5.61;101863.22;6216860;23;20047;-86
2022/08/11 12:17:35;;;;;;;9.80;8.90;;;;;;;55.99;5.11;101864.91;6190957;23;20030;-86
2022/08/11 12:20:02;;;;;;;10.32;9.40;;;;;;;56.41;5.30;101866.34;6190477;23;20008;-87
2022/08/11 12:27:57;;;;;;;11.43;10.20;;;;;;;57.04;5.26;101844.31;6187252;23;20075;-87
2022/08/11 12:30:23;;;;;;;12.35;11.25;;;;;;;57.12;4.71;101844.59;6160687;23;20428;-87
2022/08/11 12:32:59;;;;;;;11.95;10.95;;;;;;;57.36;5.42;101835.44;6185693;23;20009;-87
2022/08/11 12:35:25;;;;;;;12.00;10.95;;;;;;;58.36;4.64;101826.59;6163149;23;20049;-87
2022/08/11 12:38:01;;;;;;;14.87;12.00;;;;;;;58.29;4.45;101827.13;6187458;23;20016;-87
2022/08/11 12:46:04;;;;;;;14.27;13.27;;;;;;;58.58;4.49;101816.25;6186685;23;20020;-87
2022/08/11 12:54:25;;;;;;;;;;;;;;;;;;;;;
2022/08/11 13:05:37;;;;;;;17.10;15.57;;;;;;;60.27;3.52;101796.97;6186096;23;20134;-87
2022/08/11 13:08:03;;;;;;;17.42;16.02;;;;;;;59.68;3.51;101788.41;6186818;23;20027;-87
2022/08/11 13:13:17;;;;;;;18.05;16.55;;;;;;;59.81;3.28;101789.91;6186846;23;20020;-87
2022/08/11 13:15:46;;;;;;;17.15;15.85;;;;;;;60.00;3.32;101782.03;6186643;23;20009;-87
2022/08/11 13:18:16;;;;;;;17.97;16.60;;;;;;;59.62;3.23;101778.06;6185447;23;20068;-88
2022/08/11 13:20:43;;;;;;;18.55;17.15;;;;;;;60.15;2.94;101775.00;6185477;23;20015;-87
2022/08/11 13:23:12;;;;;;;17.98;16.65;;;;;;;60.53;2.96;101766.38;6135597;23;20020;-87
2022/08/11 13:25:39;;;;;;;19.10;17.77;;;;;;;60.19;2.96;101772.56;6187236;23;20035;-87
2022/08/11 13:28:05;;;;;;;19.08;17.60;;;;;;;60.39;2.96;101756.63;6185484;23;20092;-86
2022/08/11 13:33:17;;;;;;;18.73;17.13;;;;;;;60.18;2.75;101757.09;6186354;23;20020;-87
2022/08/11 13:35:48;;;;;;;19.98;18.55;;;;;;;60.21;3.29;101758.16;6185042;23;20020;-87
2022/08/11 13:38:14;;;;;;;19.25;17.90;;;;;;;60.78;2.40;101764.19;6184999;23;20009;-87
2022/08/11 13:40:44;;;;;;;19.70;18.17;;;;;;;61.13;3.12;101761.63;6185389;23;20009;-87
2022/08/11 13:43:12;;;;;;;20.38;18.98;;;;;;;60.92;2.95;101756.31;6184964;23;20016;-87
2022/08/11 13:45:38;;;;;;;21.00;19.55;;;;;;;60.75;2.84;101755.69;6186341;23;20033;-87
2022/08/11 13:48:08;;;;;;;21.52;20.02;;;;;;;60.31;2.48;101753.53;6185411;23;20323;-87
2022/08/11 13:53:24;;;;;;;20.67;19.05;;;;;;;61.07;3.30;101741.16;6186158;23;20068;-87
2022/08/11 13:55:50;;;;;;;19.13;17.65;;;;;;;60.82;2.80;101741.25;6184889;23;20008;-87
2022/08/11 13:58:16;;;;;;;19.20;17.98;;;;;;;60.83;3.03;101742.03;6185186;23;20426;-87
2022/08/11 14:00:48;;;;;;;21.13;19.55;;;;;;;60.47;3.21;101731.25;6185815;23;20077;-87
2022/08/11 14:03:18;;;;;;;20.00;18.47;;;;;;;60.18;3.14;101721.97;6184688;23;20012;-86
2022/08/11 14:05:50;;;;;;;20.15;18.80;;;;;;;60.09;3.29;101733.25;6184111;23;20308;-88
2022/08/11 14:08:23;;;;;;;20.92;19.45;;;;;;;60.10;3.03;101726.03;6184715;23;20009;-87
2022/08/11 14:13:36;;;;;;;19.77;18.20;;;;;;;59.57;3.56;101724.09;6184871;23;20013;-87
2022/08/11 14:13:39;;;;;;;18.85;17.20;;;;;;;59.08;3.01;101720.94;6184488;23;20101;-87
2022/08/11 14:16:17;;;;;;;17.23;16.13;;;;;;;59.59;3.43;101712.63;6185640;23;20011;-88
2022/08/11 14:18:46;;;;;;;19.27;17.77;;;;;;;59.15;3.46;101714.53;6186167;23;20009;-86
2022/08/11 14:24:01;;;;;;;18.90;17.55;;;;;;;60.07;2.72;101719.16;6185732;23;20382;-87
2022/08/11 14:26:29;;;;;;;19.50;18.15;;;;;;;60.06;3.13;101716.78;6184588;23;20009;-88
2022/08/11 14:29:18;;;;;;;18.83;17.20;;;;;;;60.96;3.56;101701.06;6186071;23;20080;-87
2022/08/11 14:31:57;;;;;;;18.30;16.67;;;;;;;60.52;3.34;101691.50;6185163;23;20016;-88
2022/08/11 14:34:26;;;;;;;19.35;17.85;;;;;;;59.42;3.52;101706.13;6186269;23;20411;-89
2022/08/11 14:36:54;;;;;;;19.83;18.27;;;;;;;59.15;3.76;101711.59;6184385;23;20037;-87
2022/08/11 14:39:25;;;;;;;18.05;16.70;;;;;;;58.77;4.00;101705.41;6184770;23;20048;-87
2022/08/11 14:47:49;;;;;;;18.25;16.70;;;;;;;58.96;3.81;101702.66;6186837;23;20316;-87
2022/08/11 14:50:21;;;;;;;18.38;16.95;;;;;;;58.63;3.52;101695.63;6184335;23;20001;-87
2022/08/11 14:52:56;;;;;;;18.10;16.83;;;;;;;59.43;3.67;101699.72;6184649;23;20097;-88
2022/08/11 14:58:16;;;;;;;17.27;15.82;;;;;;;58.96;4.01;101685.94;6186310;23;20079;-87
2022/08/11 15:00:42;;;;;;;17.38;15.95;;;;;;;58.67;3.61;101684.47;6184282;23;20016;-87
2022/08/11 15:03:11;;;;;;;17.25;15.93;;;;;;;58.48;3.74;101682.13;6160922;23;20013;-88
2022/08/11 15:05:40;;;;;;;17.77;16.48;;;;;;;58.19;4.15;101674.78;6187859;23;20035;-88
2022/08/11 15:08:07;;;;;;;14.87;13.80;;;;;;;58.02;4.29;101674.00;6186276;23;20009;-87
2022/08/11 15:10:33;;;;;;;15.13;14.02;;;;;;;58.39;4.27;101673.66;6186347;23;20016;-87
2022/08/11 15:12:59;;;;;;;16.45;14.90;;;;;;;58.29;4.11;101676.06;6161864;23;20378;-87
2022/08/11 15:18:17;;;;;;;16.08;14.88;;;;;;;57.58;4.43;101673.50;6186984;23;20028;-87
2022/08/11 15:37:24;;;;;;;13.90;12.75;;;;;;;56.71;4.36;101661.31;6186909;23;20047;-87
2022/08/11 15:37:28;;;;;;;12.45;11.48;;;;;;;56.11;4.53;101655.41;6188179;23;20056;-87
2022/08/11 15:46:05;;;;;;;12.73;11.60;;;;;;;55.53;4.85;101647.53;6195620;23;20016;-86
2022/08/11 15:48:41;;;;;;;12.43;10.93;;;;;;;55.80;4.61;101636.66;6193286;23;20428;-84
2022/08/11 15:51:23;;;;;;;11.20;10.02;;;;;;;54.86;5.19;101643.38;6192297;23;20009;-87
2022/08/11 15:53:57;;;;;;;10.70;9.90;;;;;;;54.34;5.40;101646.13;6187031;23;19997;-87
2022/08/11 15:56:27;;;;;;;12.93;10.40;;;;;;;54.59;5.29;101653.31;6187146;23;20359;-87
2022/08/11 16:04:29;;;;;;;9.77;8.98;;;;;;;53.67;5.47;101632.09;6187397;23;20063;-87
2022/08/11 16:07:12;;;;;;;11.18;10.10;;;;;;;53.26;5.30;101644.28;6184317;23;20009;-87
2022/08/11 16:09:43;;;;;;;10.48;8.55;;;;;;;52.89;5.08;101618.53;6186052;23;20071;-87
2022/08/11 16:12:13;;;;;;;11.25;9.82;;;;;;;51.85;6.17;101629.56;6187155;23;20008;-87
2022/08/11 16:17:32;;;;;;;8.70;8.07;;;;;;;50.84;6.66;101628.38;6187646;23;20148;-87
2022/08/11 16:19:59;;;;;;;9.25;8.35;;;;;;;49.93;7.39;101622.66;6185914;23;20330;-87
2022/08/11 16:22:41;;;;;;;10.95;8.02;;;;;;;48.61;7.86;101629.13;6185388;23;20454;-86
2022/08/11 16:25:10;;;;;;;8.68;8.07;;;;;;;47.04;8.80;101631.38;6187141;23;20048;-87
2022/08/11 16:27:39;;;;;;;8.03;7.23;;;;;;;46.13;8.50;101634.81;6185251;23;20001;-87
2022/08/11 16:30:07;;;;;;;9.20;7.20;;;;;;;45.16;10.20;101626.16;6185642;23;20091;-88
2022/08/11 16:32:34;;;;;;;7.35;6.85;;;;;;;44.28;9.90;101622.31;6185543;23;20034;-88
2022/08/11 16:40:47;;;;;;;6.07;5.57;;;;;;;42.77;11.39;101624.03;6187539;23;20020;-88
2022/08/11 16:46:58;;;;;;;7.63;5.45;;;;;;;41.88;12.21;101624.19;6187373;23;20110;-88
2022/08/11 16:49:05;;;;;;;6.00;5.38;;;;;;;41.58;11.98;101627.56;6186254;23;20009;-87
2022/08/11 16:51:31;;;;;;;6.68;6.05;;;;;;;41.31;12.71;101618.66;6186842;23;20415;-87